Portada
METAR-TAF:

METAR-TAF

Aeropuertos :

El Aaiún, Marruecos

Aeropuerto Internacional Hassan I

latitud: 27-10N, longitud: 013-12-59W, altitud: 6 m

Observación

El informe se hizo hace 15 minutos, a las 01:00 UTC
Viento 4 kt del suroeste
Temperatura 16°C
Humedad 100%
Presión 1012 hPa
Visibilidad: 8000 m
Cielo nuboso a una altura de 3300 ft

METAR: GMML 190100Z 22004KT 8000 BKN033 16/16 Q1012 NOSIG

Hora: 01:15 (01:15 UTC)

Pronóstico

El informe se hizo hace 2 horas y 15 minutos, a las 23:00 UTC
Pronóstico válido del 19 a las 00 UTC al 20 a las 06 UTC
Viento 6 kt del oeste-noroeste
Visibilidad: 8000 m

TAF: GMML 182300Z 1900/2006 30006KT 8000 NSC

Observaciones y pronósticos meteorológicos de más de 4000 aeropuertos (mensajes METAR y TAF).

Los puntos amarillos y rojos representan las estaciones disponibles.

Ponga el ratón en el punto deseado para ver el nombre de la estación.

Haga clic para ver las observaciones y los pronósticos meteorológicos.

Para cambiar el mapa : haga clic en los botones verdes con una cruz de color negro para hacer un zoom, en el botón verde con un guión para alejar o en las flechas verdes para mapas adyacentes.


METAR-TAF: